sensor_id;sensor_type;location;lat;lon;timestamp;temperature;humidity
17726;DHT22;8983;53.156;17.960;2023-09-08T00:01:41;20.40;99.90
17726;DHT22;8983;53.156;17.960;2023-09-08T00:04:09;20.30;99.90
17726;DHT22;8983;53.156;17.960;2023-09-08T00:06:38;20.30;99.90
17726;DHT22;8983;53.156;17.960;2023-09-08T00:09:06;20.20;99.90
17726;DHT22;8983;53.156;17.960;2023-09-08T00:11:36;20.20;99.90
17726;DHT22;8983;53.156;17.960;2023-09-08T00:14:04;20.10;99.90
17726;DHT22;8983;53.156;17.960;2023-09-08T00:16:32;20.10;99.90
17726;DHT22;8983;53.156;17.960;2023-09-08T00:19:00;20.10;99.90
17726;DHT22;8983;53.156;17.960;2023-09-08T00:21:29;20.10;99.90
17726;DHT22;8983;53.156;17.960;2023-09-08T00:23:57;20.10;99.90
17726;DHT22;8983;53.156;17.960;2023-09-08T00:26:25;20.00;99.90
17726;DHT22;8983;53.156;17.960;2023-09-08T00:28:54;20.00;99.90
17726;DHT22;8983;53.156;17.960;2023-09-08T00:31:22;20.00;99.90
17726;DHT22;8983;53.156;17.960;2023-09-08T00:33:51;19.90;99.90
17726;DHT22;8983;53.156;17.960;2023-09-08T00:36:19;19.90;99.90
17726;DHT22;8983;53.156;17.960;2023-09-08T00:38:47;19.90;99.90
17726;DHT22;8983;53.156;17.960;2023-09-08T00:41:15;19.80;99.90
17726;DHT22;8983;53.156;17.960;2023-09-08T00:43:43;19.80;99.90
17726;DHT22;8983;53.156;17.960;2023-09-08T00:46:12;19.80;99.90
17726;DHT22;8983;53.156;17.960;2023-09-08T00:48:41;19.70;99.90
17726;DHT22;8983;53.156;17.960;2023-09-08T00:51:09;19.80;99.90
17726;DHT22;8983;53.156;17.960;2023-09-08T00:53:37;19.70;99.90
17726;DHT22;8983;53.156;17.960;2023-09-08T00:56:05;19.70;99.90
17726;DHT22;8983;53.156;17.960;2023-09-08T00:58:34;19.70;99.90
17726;DHT22;8983;53.156;17.960;2023-09-08T01:01:03;19.70;99.90
17726;DHT22;8983;53.156;17.960;2023-09-08T01:03:34;19.70;99.90
17726;DHT22;8983;53.156;17.960;2023-09-08T01:06:02;19.60;99.90
17726;DHT22;8983;53.156;17.960;2023-09-08T01:08:31;19.60;99.90
17726;DHT22;8983;53.156;17.960;2023-09-08T01:11:00;19.60;99.90
17726;DHT22;8983;53.156;17.960;2023-09-08T01:13:28;19.60;99.90
17726;DHT22;8983;53.156;17.960;2023-09-08T01:15:56;19.50;99.90
17726;DHT22;8983;53.156;17.960;2023-09-08T01:18:24;19.50;99.90
17726;DHT22;8983;53.156;17.960;2023-09-08T01:21:13;19.40;99.90
17726;DHT22;8983;53.156;17.960;2023-09-08T01:23:59;19.50;99.90
17726;DHT22;8983;53.156;17.960;2023-09-08T01:26:35;19.40;99.90
17726;DHT22;8983;53.156;17.960;2023-09-08T01:29:05;19.40;99.90
17726;DHT22;8983;53.156;17.960;2023-09-08T01:31:35;19.40;99.90
17726;DHT22;8983;53.156;17.960;2023-09-08T01:34:05;19.30;99.90
17726;DHT22;8983;53.156;17.960;2023-09-08T01:36:34;19.30;99.90
17726;DHT22;8983;53.156;17.960;2023-09-08T01:39:02;19.30;99.90
17726;DHT22;8983;53.156;17.960;2023-09-08T01:41:32;19.20;99.90
17726;DHT22;8983;53.156;17.960;2023-09-08T01:44:00;19.20;99.90
17726;DHT22;8983;53.156;17.960;2023-09-08T01:46:34;19.30;99.90
17726;DHT22;8983;53.156;17.960;2023-09-08T01:49:03;19.20;99.90
17726;DHT22;8983;53.156;17.960;2023-09-08T01:51:31;19.20;99.90
17726;DHT22;8983;53.156;17.960;2023-09-08T01:53:59;19.10;99.90
17726;DHT22;8983;53.156;17.960;2023-09-08T01:56:27;19.10;99.90
17726;DHT22;8983;53.156;17.960;2023-09-08T01:58:57;19.10;99.90
17726;DHT22;8983;53.156;17.960;2023-09-08T02:01:26;19.10;99.90
17726;DHT22;8983;53.156;17.960;2023-09-08T02:03:54;19.00;99.90
17726;DHT22;8983;53.156;17.960;2023-09-08T02:06:22;19.00;99.90
17726;DHT22;8983;53.156;17.960;2023-09-08T02:08:50;19.00;99.90
17726;DHT22;8983;53.156;17.960;2023-09-08T02:11:18;18.80;99.90
17726;DHT22;8983;53.156;17.960;2023-09-08T02:13:46;18.90;99.90
17726;DHT22;8983;53.156;17.960;2023-09-08T02:16:15;18.90;99.90
17726;DHT22;8983;53.156;17.960;2023-09-08T02:18:44;18.90;99.90
17726;DHT22;8983;53.156;17.960;2023-09-08T02:21:13;18.80;99.90
17726;DHT22;8983;53.156;17.960;2023-09-08T02:23:41;18.80;99.90
17726;DHT22;8983;53.156;17.960;2023-09-08T02:26:09;18.80;99.90
17726;DHT22;8983;53.156;17.960;2023-09-08T02:28:37;18.70;99.90
17726;DHT22;8983;53.156;17.960;2023-09-08T02:31:05;18.70;99.90
17726;DHT22;8983;53.156;17.960;2023-09-08T02:33:35;18.50;99.90
17726;DHT22;8983;53.156;17.960;2023-09-08T02:36:04;18.70;99.90
17726;DHT22;8983;53.156;17.960;2023-09-08T02:38:33;18.70;99.90
17726;DHT22;8983;53.156;17.960;2023-09-08T02:41:01;18.70;99.90
17726;DHT22;8983;53.156;17.960;2023-09-08T02:43:29;18.70;99.90
17726;DHT22;8983;53.156;17.960;2023-09-08T02:45:57;18.60;99.90
17726;DHT22;8983;53.156;17.960;2023-09-08T02:48:26;18.60;99.90
17726;DHT22;8983;53.156;17.960;2023-09-08T02:50:55;18.50;99.90
17726;DHT22;8983;53.156;17.960;2023-09-08T02:53:23;18.50;99.90
17726;DHT22;8983;53.156;17.960;2023-09-08T02:55:55;18.60;99.90
17726;DHT22;8983;53.156;17.960;2023-09-08T02:58:24;18.50;99.90
17726;DHT22;8983;53.156;17.960;2023-09-08T03:00:52;18.50;99.90
17726;DHT22;8983;53.156;17.960;2023-09-08T03:03:21;18.50;99.90
17726;DHT22;8983;53.156;17.960;2023-09-08T03:05:55;18.50;99.90
17726;DHT22;8983;53.156;17.960;2023-09-08T03:08:25;18.50;99.90
17726;DHT22;8983;53.156;17.960;2023-09-08T03:10:55;18.30;99.90
17726;DHT22;8983;53.156;17.960;2023-09-08T03:13:24;18.40;99.90
17726;DHT22;8983;53.156;17.960;2023-09-08T03:15:53;18.30;99.90
17726;DHT22;8983;53.156;17.960;2023-09-08T03:18:21;18.30;99.90
17726;DHT22;8983;53.156;17.960;2023-09-08T03:20:50;18.30;99.90
17726;DHT22;8983;53.156;17.960;2023-09-08T03:23:19;18.20;99.90
17726;DHT22;8983;53.156;17.960;2023-09-08T03:25:48;18.20;99.90
17726;DHT22;8983;53.156;17.960;2023-09-08T03:28:17;18.20;99.90
17726;DHT22;8983;53.156;17.960;2023-09-08T03:30:45;18.20;99.90
17726;DHT22;8983;53.156;17.960;2023-09-08T03:33:13;18.20;99.90
17726;DHT22;8983;53.156;17.960;2023-09-08T03:35:41;18.10;99.90
17726;DHT22;8983;53.156;17.960;2023-09-08T03:38:10;18.10;99.90
17726;DHT22;8983;53.156;17.960;2023-09-08T03:40:39;18.20;99.90
17726;DHT22;8983;53.156;17.960;2023-09-08T03:43:08;18.10;99.90
17726;DHT22;8983;53.156;17.960;2023-09-08T03:45:36;18.00;99.90
17726;DHT22;8983;53.156;17.960;2023-09-08T03:48:04;18.10;99.90
17726;DHT22;8983;53.156;17.960;2023-09-08T03:50:32;18.00;99.90
17726;DHT22;8983;53.156;17.960;2023-09-08T03:53:01;18.00;99.90
17726;DHT22;8983;53.156;17.960;2023-09-08T03:55:29;18.00;99.90
17726;DHT22;8983;53.156;17.960;2023-09-08T03:57:58;18.10;99.90
17726;DHT22;8983;53.156;17.960;2023-09-08T04:00:27;17.90;99.90
17726;DHT22;8983;53.156;17.960;2023-09-08T04:02:55;17.90;99.90
17726;DHT22;8983;53.156;17.960;2023-09-08T04:05:23;17.90;99.90
17726;DHT22;8983;53.156;17.960;2023-09-08T04:07:52;17.90;99.90
17726;DHT22;8983;53.156;17.960;2023-09-08T04:10:21;17.90;99.90
17726;DHT22;8983;53.156;17.960;2023-09-08T04:12:49;17.90;99.90
17726;DHT22;8983;53.156;17.960;2023-09-08T04:15:18;17.80;99.90
17726;DHT22;8983;53.156;17.960;2023-09-08T04:17:46;17.80;99.90
17726;DHT22;8983;53.156;17.960;2023-09-08T04:20:15;17.80;99.90
17726;DHT22;8983;53.156;17.960;2023-09-08T04:22:43;17.80;99.90
17726;DHT22;8983;53.156;17.960;2023-09-08T04:25:11;17.70;99.90
17726;DHT22;8983;53.156;17.960;2023-09-08T04:27:40;17.80;99.90
17726;DHT22;8983;53.156;17.960;2023-09-08T04:30:08;17.70;99.90
17726;DHT22;8983;53.156;17.960;2023-09-08T04:32:38;17.70;99.90
17726;DHT22;8983;53.156;17.960;2023-09-08T04:35:08;17.70;99.90
17726;DHT22;8983;53.156;17.960;2023-09-08T04:37:36;17.70;99.90
17726;DHT22;8983;53.156;17.960;2023-09-08T04:40:06;17.70;99.90
17726;DHT22;8983;53.156;17.960;2023-09-08T04:42:35;17.60;99.90
17726;DHT22;8983;53.156;17.960;2023-09-08T04:45:04;17.70;99.90
17726;DHT22;8983;53.156;17.960;2023-09-08T04:47:32;17.70;99.90
17726;DHT22;8983;53.156;17.960;2023-09-08T04:50:01;17.70;99.90
17726;DHT22;8983;53.156;17.960;2023-09-08T04:52:30;17.70;99.90
17726;DHT22;8983;53.156;17.960;2023-09-08T04:54:58;17.70;99.90
17726;DHT22;8983;53.156;17.960;2023-09-08T04:57:26;17.70;99.90
17726;DHT22;8983;53.156;17.960;2023-09-08T04:59:55;17.70;99.90
17726;DHT22;8983;53.156;17.960;2023-09-08T05:02:24;17.70;99.90
17726;DHT22;8983;53.156;17.960;2023-09-08T05:04:52;17.80;99.90
17726;DHT22;8983;53.156;17.960;2023-09-08T05:07:21;17.60;99.90
17726;DHT22;8983;53.156;17.960;2023-09-08T05:09:49;17.70;99.90
17726;DHT22;8983;53.156;17.960;2023-09-08T05:12:19;17.60;99.90
17726;DHT22;8983;53.156;17.960;2023-09-08T05:14:47;17.70;99.90
17726;DHT22;8983;53.156;17.960;2023-09-08T05:17:15;17.80;99.90
17726;DHT22;8983;53.156;17.960;2023-09-08T05:19:43;17.80;99.90
17726;DHT22;8983;53.156;17.960;2023-09-08T05:22:11;17.80;99.90
17726;DHT22;8983;53.156;17.960;2023-09-08T05:24:41;17.80;99.90
17726;DHT22;8983;53.156;17.960;2023-09-08T05:27:09;17.80;99.90
17726;DHT22;8983;53.156;17.960;2023-09-08T05:29:37;17.80;99.90
17726;DHT22;8983;53.156;17.960;2023-09-08T05:32:05;17.80;99.90
17726;DHT22;8983;53.156;17.960;2023-09-08T05:34:33;17.90;99.90
17726;DHT22;8983;53.156;17.960;2023-09-08T05:37:02;17.90;99.90
17726;DHT22;8983;53.156;17.960;2023-09-08T05:39:30;17.90;99.90
17726;DHT22;8983;53.156;17.960;2023-09-08T05:41:59;18.00;99.90
17726;DHT22;8983;53.156;17.960;2023-09-08T05:44:27;18.00;99.90
17726;DHT22;8983;53.156;17.960;2023-09-08T05:46:55;18.10;99.90
17726;DHT22;8983;53.156;17.960;2023-09-08T05:49:24;18.10;99.90
17726;DHT22;8983;53.156;17.960;2023-09-08T05:51:52;18.10;99.90
17726;DHT22;8983;53.156;17.960;2023-09-08T05:54:20;18.20;99.90
17726;DHT22;8983;53.156;17.960;2023-09-08T05:56:48;18.20;99.90
17726;DHT22;8983;53.156;17.960;2023-09-08T05:59:17;18.30;99.90
17726;DHT22;8983;53.156;17.960;2023-09-08T06:01:45;18.30;99.90
17726;DHT22;8983;53.156;17.960;2023-09-08T06:04:14;18.30;99.90
17726;DHT22;8983;53.156;17.960;2023-09-08T06:06:42;18.40;99.90
17726;DHT22;8983;53.156;17.960;2023-09-08T06:09:10;18.40;99.90
17726;DHT22;8983;53.156;17.960;2023-09-08T06:11:39;18.40;99.90
17726;DHT22;8983;53.156;17.960;2023-09-08T06:14:07;18.60;99.90
17726;DHT22;8983;53.156;17.960;2023-09-08T06:16:36;18.60;99.90
17726;DHT22;8983;53.156;17.960;2023-09-08T06:19:04;18.60;99.90
17726;DHT22;8983;53.156;17.960;2023-09-08T06:21:32;18.60;99.90
17726;DHT22;8983;53.156;17.960;2023-09-08T06:24:00;18.70;99.90
17726;DHT22;8983;53.156;17.960;2023-09-08T06:26:29;18.70;99.90
17726;DHT22;8983;53.156;17.960;2023-09-08T06:28:57;18.70;99.90
17726;DHT22;8983;53.156;17.960;2023-09-08T06:31:25;18.80;99.90
17726;DHT22;8983;53.156;17.960;2023-09-08T06:33:54;18.90;99.90
17726;DHT22;8983;53.156;17.960;2023-09-08T06:36:23;19.00;99.90
17726;DHT22;8983;53.156;17.960;2023-09-08T06:38:51;19.00;99.90
17726;DHT22;8983;53.156;17.960;2023-09-08T06:41:19;19.10;99.90
17726;DHT22;8983;53.156;17.960;2023-09-08T06:43:47;19.10;99.90
17726;DHT22;8983;53.156;17.960;2023-09-08T06:46:15;19.10;99.90
17726;DHT22;8983;53.156;17.960;2023-09-08T06:48:44;19.20;99.90
17726;DHT22;8983;53.156;17.960;2023-09-08T06:51:13;19.30;99.90
17726;DHT22;8983;53.156;17.960;2023-09-08T06:53:43;19.40;99.90
17726;DHT22;8983;53.156;17.960;2023-09-08T06:56:11;19.30;99.90
17726;DHT22;8983;53.156;17.960;2023-09-08T06:58:39;19.40;99.90
17726;DHT22;8983;53.156;17.960;2023-09-08T07:01:07;19.40;99.90
17726;DHT22;8983;53.156;17.960;2023-09-08T07:03:36;19.50;99.90
17726;DHT22;8983;53.156;17.960;2023-09-08T07:06:05;19.50;99.90
17726;DHT22;8983;53.156;17.960;2023-09-08T07:08:34;19.60;99.90
17726;DHT22;8983;53.156;17.960;2023-09-08T07:11:03;19.70;99.90
17726;DHT22;8983;53.156;17.960;2023-09-08T07:13:31;19.60;99.90
17726;DHT22;8983;53.156;17.960;2023-09-08T07:15:59;19.70;99.90
17726;DHT22;8983;53.156;17.960;2023-09-08T07:18:28;19.80;99.90
17726;DHT22;8983;53.156;17.960;2023-09-08T07:20:59;19.80;99.90
17726;DHT22;8983;53.156;17.960;2023-09-08T07:23:28;19.80;99.90
17726;DHT22;8983;53.156;17.960;2023-09-08T07:25:57;19.90;99.90
17726;DHT22;8983;53.156;17.960;2023-09-08T07:28:25;19.90;99.90
17726;DHT22;8983;53.156;17.960;2023-09-08T07:30:53;20.00;99.90
17726;DHT22;8983;53.156;17.960;2023-09-08T07:33:21;20.00;99.90
17726;DHT22;8983;53.156;17.960;2023-09-08T07:35:49;20.10;99.90
17726;DHT22;8983;53.156;17.960;2023-09-08T07:38:17;20.20;99.90
17726;DHT22;8983;53.156;17.960;2023-09-08T07:40:45;20.20;99.90
17726;DHT22;8983;53.156;17.960;2023-09-08T07:43:15;20.30;99.90
17726;DHT22;8983;53.156;17.960;2023-09-08T07:45:43;20.30;99.90
17726;DHT22;8983;53.156;17.960;2023-09-08T07:48:11;20.40;99.90
17726;DHT22;8983;53.156;17.960;2023-09-08T07:50:39;20.50;99.90
17726;DHT22;8983;53.156;17.960;2023-09-08T07:53:07;20.50;99.90
17726;DHT22;8983;53.156;17.960;2023-09-08T07:55:36;20.60;99.90
17726;DHT22;8983;53.156;17.960;2023-09-08T07:58:04;20.70;99.90
17726;DHT22;8983;53.156;17.960;2023-09-08T08:00:34;20.70;99.90
17726;DHT22;8983;53.156;17.960;2023-09-08T08:03:02;20.80;99.90
17726;DHT22;8983;53.156;17.960;2023-09-08T08:05:30;20.90;99.90
17726;DHT22;8983;53.156;17.960;2023-09-08T08:07:58;21.00;99.90
17726;DHT22;8983;53.156;17.960;2023-09-08T08:10:26;21.00;99.90
17726;DHT22;8983;53.156;17.960;2023-09-08T08:12:54;21.10;99.90
17726;DHT22;8983;53.156;17.960;2023-09-08T08:15:23;21.10;99.90
17726;DHT22;8983;53.156;17.960;2023-09-08T08:18:03;21.30;99.90
17726;DHT22;8983;53.156;17.960;2023-09-08T08:20:32;21.30;99.90
17726;DHT22;8983;53.156;17.960;2023-09-08T08:23:01;21.40;99.90
17726;DHT22;8983;53.156;17.960;2023-09-08T08:25:29;21.40;99.90
17726;DHT22;8983;53.156;17.960;2023-09-08T08:27:58;21.50;99.90
17726;DHT22;8983;53.156;17.960;2023-09-08T08:30:28;21.60;99.90
17726;DHT22;8983;53.156;17.960;2023-09-08T08:32:56;21.60;99.90
17726;DHT22;8983;53.156;17.960;2023-09-08T08:35:25;21.70;99.90
17726;DHT22;8983;53.156;17.960;2023-09-08T08:37:53;21.70;99.90
17726;DHT22;8983;53.156;17.960;2023-09-08T08:40:21;21.80;99.90
17726;DHT22;8983;53.156;17.960;2023-09-08T08:42:55;21.90;99.90
17726;DHT22;8983;53.156;17.960;2023-09-08T08:45:27;21.90;99.90
17726;DHT22;8983;53.156;17.960;2023-09-08T08:47:57;22.00;99.90
17726;DHT22;8983;53.156;17.960;2023-09-08T08:50:27;22.10;99.90
17726;DHT22;8983;53.156;17.960;2023-09-08T08:52:56;22.20;99.90
17726;DHT22;8983;53.156;17.960;2023-09-08T08:55:25;22.20;99.90
17726;DHT22;8983;53.156;17.960;2023-09-08T08:57:54;22.30;99.90
17726;DHT22;8983;53.156;17.960;2023-09-08T09:00:23;22.40;99.90
17726;DHT22;8983;53.156;17.960;2023-09-08T09:02:51;22.50;99.90
17726;DHT22;8983;53.156;17.960;2023-09-08T09:05:39;22.60;99.90
17726;DHT22;8983;53.156;17.960;2023-09-08T09:08:13;22.70;99.90
17726;DHT22;8983;53.156;17.960;2023-09-08T09:10:42;22.80;99.90
17726;DHT22;8983;53.156;17.960;2023-09-08T09:13:10;22.80;99.90
17726;DHT22;8983;53.156;17.960;2023-09-08T09:15:39;22.90;99.90
17726;DHT22;8983;53.156;17.960;2023-09-08T09:18:08;23.00;99.90
17726;DHT22;8983;53.156;17.960;2023-09-08T09:20:38;23.00;99.90
17726;DHT22;8983;53.156;17.960;2023-09-08T09:23:08;23.10;99.90
17726;DHT22;8983;53.156;17.960;2023-09-08T09:25:37;23.20;99.90
17726;DHT22;8983;53.156;17.960;2023-09-08T09:28:05;23.30;99.90
17726;DHT22;8983;53.156;17.960;2023-09-08T09:30:47;23.40;99.90
17726;DHT22;8983;53.156;17.960;2023-09-08T09:33:16;23.40;99.90
17726;DHT22;8983;53.156;17.960;2023-09-08T09:35:47;23.60;99.90
17726;DHT22;8983;53.156;17.960;2023-09-08T09:38:16;23.80;99.90
17726;DHT22;8983;53.156;17.960;2023-09-08T09:40:45;24.00;99.90
17726;DHT22;8983;53.156;17.960;2023-09-08T09:43:15;24.20;99.90
17726;DHT22;8983;53.156;17.960;2023-09-08T09:45:44;24.40;99.90
17726;DHT22;8983;53.156;17.960;2023-09-08T09:48:12;24.70;99.90
17726;DHT22;8983;53.156;17.960;2023-09-08T09:50:41;25.00;99.90
17726;DHT22;8983;53.156;17.960;2023-09-08T09:53:13;25.40;99.90
17726;DHT22;8983;53.156;17.960;2023-09-08T09:55:43;25.70;99.90
17726;DHT22;8983;53.156;17.960;2023-09-08T09:58:11;26.00;99.90
17726;DHT22;8983;53.156;17.960;2023-09-08T10:00:41;26.30;99.90
17726;DHT22;8983;53.156;17.960;2023-09-08T10:03:15;26.60;99.90
17726;DHT22;8983;53.156;17.960;2023-09-08T10:05:44;27.00;99.90
17726;DHT22;8983;53.156;17.960;2023-09-08T10:08:15;27.30;99.90
17726;DHT22;8983;53.156;17.960;2023-09-08T10:10:45;27.60;99.20
17726;DHT22;8983;53.156;17.960;2023-09-08T10:13:26;27.90;98.50
17726;DHT22;8983;53.156;17.960;2023-09-08T10:15:57;28.00;97.40
17726;DHT22;8983;53.156;17.960;2023-09-08T10:18:26;28.10;96.40
17726;DHT22;8983;53.156;17.960;2023-09-08T10:20:58;28.20;95.80
17726;DHT22;8983;53.156;17.960;2023-09-08T10:23:33;28.30;95.20
17726;DHT22;8983;53.156;17.960;2023-09-08T10:26:06;28.40;94.90
17726;DHT22;8983;53.156;17.960;2023-09-08T10:28:37;28.70;94.50
17726;DHT22;8983;53.156;17.960;2023-09-08T10:31:07;29.00;94.20
17726;DHT22;8983;53.156;17.960;2023-09-08T10:33:38;29.20;93.70
17726;DHT22;8983;53.156;17.960;2023-09-08T10:36:08;29.30;92.20
17726;DHT22;8983;53.156;17.960;2023-09-08T10:38:38;29.40;91.50
17726;DHT22;8983;53.156;17.960;2023-09-08T10:41:28;29.40;90.90
17726;DHT22;8983;53.156;17.960;2023-09-08T10:44:07;29.50;90.10
17726;DHT22;8983;53.156;17.960;2023-09-08T10:46:37;29.70;88.90
17726;DHT22;8983;53.156;17.960;2023-09-08T10:49:06;29.80;87.30
17726;DHT22;8983;53.156;17.960;2023-09-08T10:51:36;29.90;86.40
17726;DHT22;8983;53.156;17.960;2023-09-08T10:54:06;30.00;85.20
17726;DHT22;8983;53.156;17.960;2023-09-08T10:56:54;30.10;83.30
17726;DHT22;8983;53.156;17.960;2023-09-08T10:59:28;30.20;82.10
17726;DHT22;8983;53.156;17.960;2023-09-08T11:01:56;30.20;81.50
17726;DHT22;8983;53.156;17.960;2023-09-08T11:04:25;30.20;81.30
17726;DHT22;8983;53.156;17.960;2023-09-08T11:06:56;30.40;80.80
17726;DHT22;8983;53.156;17.960;2023-09-08T11:09:25;30.70;79.90
17726;DHT22;8983;53.156;17.960;2023-09-08T11:11:54;30.90;78.60
17726;DHT22;8983;53.156;17.960;2023-09-08T11:14:25;31.20;77.50
17726;DHT22;8983;53.156;17.960;2023-09-08T11:16:54;31.40;76.20
17726;DHT22;8983;53.156;17.960;2023-09-08T11:19:22;31.60;75.30
17726;DHT22;8983;53.156;17.960;2023-09-08T11:21:50;31.80;74.40
17726;DHT22;8983;53.156;17.960;2023-09-08T11:24:18;31.90;73.60
17726;DHT22;8983;53.156;17.960;2023-09-08T11:26:47;32.10;73.30
17726;DHT22;8983;53.156;17.960;2023-09-08T11:29:17;32.30;73.10
17726;DHT22;8983;53.156;17.960;2023-09-08T11:31:51;32.50;72.10
17726;DHT22;8983;53.156;17.960;2023-09-08T11:34:20;32.70;70.70
17726;DHT22;8983;53.156;17.960;2023-09-08T11:36:49;32.90;69.80
17726;DHT22;8983;53.156;17.960;2023-09-08T11:39:17;33.00;69.20
17726;DHT22;8983;53.156;17.960;2023-09-08T11:41:46;33.10;68.80
17726;DHT22;8983;53.156;17.960;2023-09-08T11:44:15;33.30;68.60
17726;DHT22;8983;53.156;17.960;2023-09-08T11:46:44;33.50;68.40
17726;DHT22;8983;53.156;17.960;2023-09-08T11:49:12;33.60;67.80
17726;DHT22;8983;53.156;17.960;2023-09-08T11:51:40;33.80;66.80
17726;DHT22;8983;53.156;17.960;2023-09-08T11:54:09;33.80;65.30
17726;DHT22;8983;53.156;17.960;2023-09-08T11:56:37;33.80;64.50
17726;DHT22;8983;53.156;17.960;2023-09-08T11:59:07;33.80;64.20
17726;DHT22;8983;53.156;17.960;2023-09-08T12:01:36;34.00;63.50
17726;DHT22;8983;53.156;17.960;2023-09-08T12:04:04;34.00;62.50
17726;DHT22;8983;53.156;17.960;2023-09-08T12:06:32;34.10;61.60
17726;DHT22;8983;53.156;17.960;2023-09-08T12:09:01;34.10;60.80
17726;DHT22;8983;53.156;17.960;2023-09-08T12:11:32;34.00;60.30
17726;DHT22;8983;53.156;17.960;2023-09-08T12:14:01;33.90;59.90
17726;DHT22;8983;53.156;17.960;2023-09-08T12:16:31;34.00;59.80
17726;DHT22;8983;53.156;17.960;2023-09-08T12:18:59;34.00;59.30
17726;DHT22;8983;53.156;17.960;2023-09-08T12:21:27;34.10;59.10
17726;DHT22;8983;53.156;17.960;2023-09-08T12:23:56;34.30;58.60
17726;DHT22;8983;53.156;17.960;2023-09-08T12:26:25;34.40;58.00
17726;DHT22;8983;53.156;17.960;2023-09-08T12:28:53;34.30;57.60
17726;DHT22;8983;53.156;17.960;2023-09-08T12:31:22;34.40;57.40
17726;DHT22;8983;53.156;17.960;2023-09-08T12:33:52;34.40;57.30
17726;DHT22;8983;53.156;17.960;2023-09-08T12:36:20;34.50;56.90
17726;DHT22;8983;53.156;17.960;2023-09-08T12:38:50;34.50;56.70
17726;DHT22;8983;53.156;17.960;2023-09-08T12:41:19;34.70;56.70
17726;DHT22;8983;53.156;17.960;2023-09-08T12:43:48;34.70;56.40
17726;DHT22;8983;53.156;17.960;2023-09-08T12:46:17;34.70;56.00
17726;DHT22;8983;53.156;17.960;2023-09-08T12:48:45;34.80;55.80
17726;DHT22;8983;53.156;17.960;2023-09-08T12:51:15;35.00;55.90
17726;DHT22;8983;53.156;17.960;2023-09-08T12:53:43;35.10;56.00
17726;DHT22;8983;53.156;17.960;2023-09-08T12:56:11;35.20;55.70
17726;DHT22;8983;53.156;17.960;2023-09-08T12:58:39;35.20;55.40
17726;DHT22;8983;53.156;17.960;2023-09-08T13:01:07;35.20;55.40
17726;DHT22;8983;53.156;17.960;2023-09-08T13:03:35;35.20;55.20
17726;DHT22;8983;53.156;17.960;2023-09-08T13:06:04;35.30;54.80
17726;DHT22;8983;53.156;17.960;2023-09-08T13:08:33;35.30;54.50
17726;DHT22;8983;53.156;17.960;2023-09-08T13:11:02;35.40;55.10
17726;DHT22;8983;53.156;17.960;2023-09-08T13:13:30;35.40;54.20
17726;DHT22;8983;53.156;17.960;2023-09-08T13:15:58;35.50;54.10
17726;DHT22;8983;53.156;17.960;2023-09-08T13:18:26;35.60;53.80
17726;DHT22;8983;53.156;17.960;2023-09-08T13:20:54;35.50;53.40
17726;DHT22;8983;53.156;17.960;2023-09-08T13:23:22;35.40;53.80
17726;DHT22;8983;53.156;17.960;2023-09-08T13:25:52;35.50;54.20
17726;DHT22;8983;53.156;17.960;2023-09-08T13:28:20;35.60;53.80
17726;DHT22;8983;53.156;17.960;2023-09-08T13:30:48;35.50;53.60
17726;DHT22;8983;53.156;17.960;2023-09-08T13:33:16;35.20;53.30
17726;DHT22;8983;53.156;17.960;2023-09-08T13:35:44;35.10;53.60
17726;DHT22;8983;53.156;17.960;2023-09-08T13:38:12;35.20;53.60
17726;DHT22;8983;53.156;17.960;2023-09-08T13:40:40;35.20;53.20
17726;DHT22;8983;53.156;17.960;2023-09-08T13:43:10;35.30;53.10
17726;DHT22;8983;53.156;17.960;2023-09-08T13:45:38;35.40;53.20
17726;DHT22;8983;53.156;17.960;2023-09-08T13:48:09;35.30;53.00
17726;DHT22;8983;53.156;17.960;2023-09-08T13:50:38;35.20;53.10
17726;DHT22;8983;53.156;17.960;2023-09-08T13:53:10;35.10;53.30
17726;DHT22;8983;53.156;17.960;2023-09-08T13:55:40;34.90;53.20
17726;DHT22;8983;53.156;17.960;2023-09-08T13:58:11;34.80;53.30
17726;DHT22;8983;53.156;17.960;2023-09-08T14:00:40;34.70;53.50
17726;DHT22;8983;53.156;17.960;2023-09-08T14:03:12;34.90;53.60
17726;DHT22;8983;53.156;17.960;2023-09-08T14:05:46;34.90;53.30
17726;DHT22;8983;53.156;17.960;2023-09-08T14:08:18;35.00;53.10
17726;DHT22;8983;53.156;17.960;2023-09-08T14:10:55;35.00;53.00
17726;DHT22;8983;53.156;17.960;2023-09-08T14:13:27;35.00;52.90
17726;DHT22;8983;53.156;17.960;2023-09-08T14:15:56;35.20;52.70
17726;DHT22;8983;53.156;17.960;2023-09-08T14:18:28;35.20;52.50
17726;DHT22;8983;53.156;17.960;2023-09-08T14:20:56;35.40;52.30
17726;DHT22;8983;53.156;17.960;2023-09-08T14:23:24;35.50;52.20
17726;DHT22;8983;53.156;17.960;2023-09-08T14:25:52;35.70;52.10
17726;DHT22;8983;53.156;17.960;2023-09-08T14:28:21;35.80;51.80
17726;DHT22;8983;53.156;17.960;2023-09-08T14:30:50;36.00;51.60
17726;DHT22;8983;53.156;17.960;2023-09-08T14:33:18;36.20;51.50
17726;DHT22;8983;53.156;17.960;2023-09-08T14:35:46;36.40;51.60
17726;DHT22;8983;53.156;17.960;2023-09-08T14:38:18;36.50;51.30
17726;DHT22;8983;53.156;17.960;2023-09-08T14:40:54;36.80;51.40
17726;DHT22;8983;53.156;17.960;2023-09-08T14:43:23;36.90;51.40
17726;DHT22;8983;53.156;17.960;2023-09-08T14:45:53;37.00;51.50
17726;DHT22;8983;53.156;17.960;2023-09-08T14:48:24;37.10;51.50
17726;DHT22;8983;53.156;17.960;2023-09-08T14:50:52;37.10;51.60
17726;DHT22;8983;53.156;17.960;2023-09-08T14:53:20;37.20;51.90
17726;DHT22;8983;53.156;17.960;2023-09-08T14:55:48;37.20;51.90
17726;DHT22;8983;53.156;17.960;2023-09-08T14:58:16;37.20;51.80
17726;DHT22;8983;53.156;17.960;2023-09-08T15:00:45;37.20;51.80
17726;DHT22;8983;53.156;17.960;2023-09-08T15:03:15;37.30;51.80
17726;DHT22;8983;53.156;17.960;2023-09-08T15:05:43;37.20;51.50
17726;DHT22;8983;53.156;17.960;2023-09-08T15:08:11;37.20;51.10
17726;DHT22;8983;53.156;17.960;2023-09-08T15:10:40;37.30;51.00
17726;DHT22;8983;53.156;17.960;2023-09-08T15:13:08;37.30;50.80
17726;DHT22;8983;53.156;17.960;2023-09-08T15:15:36;37.20;50.30
17726;DHT22;8983;53.156;17.960;2023-09-08T15:18:04;37.00;50.20
17726;DHT22;8983;53.156;17.960;2023-09-08T15:20:34;36.90;50.60
17726;DHT22;8983;53.156;17.960;2023-09-08T15:23:03;36.90;50.90
17726;DHT22;8983;53.156;17.960;2023-09-08T15:25:33;36.90;50.90
17726;DHT22;8983;53.156;17.960;2023-09-08T15:28:02;36.90;51.00
17726;DHT22;8983;53.156;17.960;2023-09-08T15:30:31;36.70;51.00
17726;DHT22;8983;53.156;17.960;2023-09-08T15:33:02;36.60;51.50
17726;DHT22;8983;53.156;17.960;2023-09-08T15:35:31;36.50;52.00
17726;DHT22;8983;53.156;17.960;2023-09-08T15:38:01;36.50;52.30
17726;DHT22;8983;53.156;17.960;2023-09-08T15:40:29;36.50;52.50
17726;DHT22;8983;53.156;17.960;2023-09-08T15:42:57;36.50;52.50